sensor_id;sensor_type;location;lat;lon;timestamp;pressure;altitude;pressure_sealevel;temperature
70123;BMP280;57489;37.404;24.920;2022-08-21T00:03:37;99314.16;;;30.47
70123;BMP280;57489;37.404;24.920;2022-08-21T00:08:38;99315.56;;;30.55
70123;BMP280;57489;37.404;24.920;2022-08-21T00:13:39;99311.19;;;30.41
70123;BMP280;57489;37.404;24.920;2022-08-21T00:18:40;99309.06;;;30.33
70123;BMP280;57489;37.404;24.920;2022-08-21T00:23:41;99314.47;;;30.33
70123;BMP280;57489;37.404;24.920;2022-08-21T00:28:41;99306.66;;;30.15
70123;BMP280;57489;37.404;24.920;2022-08-21T00:33:42;99294.38;;;30.30
70123;BMP280;57489;37.404;24.920;2022-08-21T00:38:43;99291.06;;;30.22
70123;BMP280;57489;37.404;24.920;2022-08-21T00:43:44;99293.63;;;30.29
70123;BMP280;57489;37.404;24.920;2022-08-21T00:48:45;99277.47;;;30.26
70123;BMP280;57489;37.404;24.920;2022-08-21T00:53:46;99270.94;;;30.23
70123;BMP280;57489;37.404;24.920;2022-08-21T00:58:47;99280.59;;;30.24
70123;BMP280;57489;37.404;24.920;2022-08-21T01:03:48;99275.16;;;30.24
70123;BMP280;57489;37.404;24.920;2022-08-21T01:08:49;99264.78;;;30.23
70123;BMP280;57489;37.404;24.920;2022-08-21T01:13:50;99261.28;;;30.22
70123;BMP280;57489;37.404;24.920;2022-08-21T01:18:51;99252.81;;;30.20
70123;BMP280;57489;37.404;24.920;2022-08-21T01:23:55;99248.09;;;30.24
70123;BMP280;57489;37.404;24.920;2022-08-21T01:29:26;99252.69;;;30.27
70123;BMP280;57489;37.404;24.920;2022-08-21T01:34:22;99247.94;;;30.31
70123;BMP280;57489;37.404;24.920;2022-08-21T01:39:22;99244.38;;;30.18
70123;BMP280;57489;37.404;24.920;2022-08-21T01:44:24;99236.56;;;30.20
70123;BMP280;57489;37.404;24.920;2022-08-21T01:49:25;99247.41;;;30.20
70123;BMP280;57489;37.404;24.920;2022-08-21T01:54:26;99249.97;;;30.27
70123;BMP280;57489;37.404;24.920;2022-08-21T01:59:27;99240.47;;;30.19
70123;BMP280;57489;37.404;24.920;2022-08-21T02:04:28;99231.25;;;30.17
70123;BMP280;57489;37.404;24.920;2022-08-21T02:09:28;99231.88;;;30.24
70123;BMP280;57489;37.404;24.920;2022-08-21T02:14:29;99235.66;;;30.27
70123;BMP280;57489;37.404;24.920;2022-08-21T02:19:29;99231.94;;;30.21
70123;BMP280;57489;37.404;24.920;2022-08-21T02:24:30;99240.47;;;30.19
70123;BMP280;57489;37.404;24.920;2022-08-21T02:29:30;99241.84;;;30.27
70123;BMP280;57489;37.404;24.920;2022-08-21T02:34:31;99233.19;;;30.36
70123;BMP280;57489;37.404;24.920;2022-08-21T02:39:31;99220.41;;;30.37
70123;BMP280;57489;37.404;24.920;2022-08-21T02:44:32;99231.38;;;30.29
70123;BMP280;57489;37.404;24.920;2022-08-21T02:49:32;99229.38;;;30.34
70123;BMP280;57489;37.404;24.920;2022-08-21T02:54:33;99237.00;;;30.39
70123;BMP280;57489;37.404;24.920;2022-08-21T02:59:33;99232.94;;;30.47
70123;BMP280;57489;37.404;24.920;2022-08-21T03:04:34;99223.44;;;30.39
70123;BMP280;57489;37.404;24.920;2022-08-21T03:09:34;99228.38;;;30.44
70123;BMP280;57489;37.404;24.920;2022-08-21T03:14:35;99224.56;;;30.41
70123;BMP280;57489;37.404;24.920;2022-08-21T03:19:35;99229.56;;;30.43
70123;BMP280;57489;37.404;24.920;2022-08-21T03:24:36;99219.63;;;30.36
70123;BMP280;57489;37.404;24.920;2022-08-21T03:29:36;99216.16;;;30.36
70123;BMP280;57489;37.404;24.920;2022-08-21T03:34:38;99221.84;;;30.41
70123;BMP280;57489;37.404;24.920;2022-08-21T03:39:38;99216.50;;;30.38
70123;BMP280;57489;37.404;24.920;2022-08-21T03:44:39;99214.63;;;30.35
70123;BMP280;57489;37.404;24.920;2022-08-21T03:49:40;99212.97;;;30.41
70123;BMP280;57489;37.404;24.920;2022-08-21T03:54:40;99217.78;;;30.49
70123;BMP280;57489;37.404;24.920;2022-08-21T03:59:41;99216.53;;;30.54
70123;BMP280;57489;37.404;24.920;2022-08-21T04:04:41;99226.00;;;30.46
70123;BMP280;57489;37.404;24.920;2022-08-21T04:09:42;99224.06;;;30.46
70123;BMP280;57489;37.404;24.920;2022-08-21T04:14:42;99217.66;;;30.56
70123;BMP280;57489;37.404;24.920;2022-08-21T04:19:43;99233.13;;;30.56
70123;BMP280;57489;37.404;24.920;2022-08-21T04:24:44;99237.66;;;30.63
70123;BMP280;57489;37.404;24.920;2022-08-21T04:29:44;99242.19;;;30.66
70123;BMP280;57489;37.404;24.920;2022-08-21T04:34:45;99242.47;;;30.71
70123;BMP280;57489;37.404;24.920;2022-08-21T04:39:45;99244.34;;;30.74
70123;BMP280;57489;37.404;24.920;2022-08-21T04:44:47;99253.84;;;30.82
70123;BMP280;57489;37.404;24.920;2022-08-21T04:49:48;99248.69;;;30.88
70123;BMP280;57489;37.404;24.920;2022-08-21T04:54:49;99257.09;;;30.94
70123;BMP280;57489;37.404;24.920;2022-08-21T04:59:50;99251.16;;;30.99
70123;BMP280;57489;37.404;24.920;2022-08-21T05:04:53;99260.28;;;31.05
70123;BMP280;57489;37.404;24.920;2022-08-21T05:09:54;99265.19;;;31.10
70123;BMP280;57489;37.404;24.920;2022-08-21T05:14:55;99261.66;;;31.13
70123;BMP280;57489;37.404;24.920;2022-08-21T05:19:55;99262.31;;;31.17
70123;BMP280;57489;37.404;24.920;2022-08-21T05:24:57;99251.31;;;31.24
70123;BMP280;57489;37.404;24.920;2022-08-21T05:29:58;99258.88;;;31.33
70123;BMP280;57489;37.404;24.920;2022-08-21T05:34:59;99255.25;;;31.36
70123;BMP280;57489;37.404;24.920;2022-08-21T05:40:00;99259.34;;;31.44
70123;BMP280;57489;37.404;24.920;2022-08-21T05:45:00;99252.34;;;31.46
70123;BMP280;57489;37.404;24.920;2022-08-21T05:50:01;99259.94;;;31.51
70123;BMP280;57489;37.404;24.920;2022-08-21T05:55:03;99258.22;;;31.58
70123;BMP280;57489;37.404;24.920;2022-08-21T06:00:04;99265.06;;;31.62
70123;BMP280;57489;37.404;24.920;2022-08-21T06:05:05;99258.88;;;31.62
70123;BMP280;57489;37.404;24.920;2022-08-21T06:10:06;99257.84;;;31.72
70123;BMP280;57489;37.404;24.920;2022-08-21T06:15:07;99261.47;;;31.81
70123;BMP280;57489;37.404;24.920;2022-08-21T06:20:08;99262.88;;;31.86
70123;BMP280;57489;37.404;24.920;2022-08-21T06:25:09;99275.16;;;31.91
70123;BMP280;57489;37.404;24.920;2022-08-21T06:30:10;99275.94;;;31.91
70123;BMP280;57489;37.404;24.920;2022-08-21T06:35:11;99277.59;;;32.01
70123;BMP280;57489;37.404;24.920;2022-08-21T06:40:12;99276.22;;;32.09
70123;BMP280;57489;37.404;24.920;2022-08-21T06:45:12;99273.16;;;32.07
70123;BMP280;57489;37.404;24.920;2022-08-21T06:50:13;99274.41;;;32.19
70123;BMP280;57489;37.404;24.920;2022-08-21T06:55:13;99279.63;;;32.26
70123;BMP280;57489;37.404;24.920;2022-08-21T07:00:14;99266.81;;;32.27
70123;BMP280;57489;37.404;24.920;2022-08-21T07:05:15;99275.28;;;32.29
70123;BMP280;57489;37.404;24.920;2022-08-21T07:10:15;99270.16;;;32.31
70123;BMP280;57489;37.404;24.920;2022-08-21T07:15:16;99284.94;;;32.30
70123;BMP280;57489;37.404;24.920;2022-08-21T07:20:17;99279.28;;;32.37
70123;BMP280;57489;37.404;24.920;2022-08-21T07:25:17;99288.44;;;32.43
70123;BMP280;57489;37.404;24.920;2022-08-21T07:30:18;99289.09;;;32.47
70123;BMP280;57489;37.404;24.920;2022-08-21T07:35:20;99287.03;;;32.51
70123;BMP280;57489;37.404;24.920;2022-08-21T07:40:21;99284.72;;;32.37
70123;BMP280;57489;37.404;24.920;2022-08-21T07:45:22;99281.16;;;32.53
70123;BMP280;57489;37.404;24.920;2022-08-21T07:50:23;99266.94;;;32.61
70123;BMP280;57489;37.404;24.920;2022-08-21T07:55:24;99269.09;;;32.66
70123;BMP280;57489;37.404;24.920;2022-08-21T08:00:26;99267.06;;;32.70
70123;BMP280;57489;37.404;24.920;2022-08-21T08:05:28;99257.91;;;32.64
70123;BMP280;57489;37.404;24.920;2022-08-21T08:10:29;99261.63;;;32.70
70123;BMP280;57489;37.404;24.920;2022-08-21T08:15:30;99257.06;;;32.67
70123;BMP280;57489;37.404;24.920;2022-08-21T08:20:30;99254.09;;;32.74
70123;BMP280;57489;37.404;24.920;2022-08-21T08:25:31;99253.03;;;32.85
70123;BMP280;57489;37.404;24.920;2022-08-21T08:30:32;99247.59;;;32.85
70123;BMP280;57489;37.404;24.920;2022-08-21T08:35:33;99245.81;;;32.91
70123;BMP280;57489;37.404;24.920;2022-08-21T08:46:12;99234.94;;;32.91
70123;BMP280;57489;37.404;24.920;2022-08-21T08:51:23;99233.78;;;32.92
70123;BMP280;57489;37.404;24.920;2022-08-21T08:56:30;99229.28;;;32.98
70123;BMP280;57489;37.404;24.920;2022-08-21T09:01:31;99225.25;;;33.02
70123;BMP280;57489;37.404;24.920;2022-08-21T09:06:49;99219.44;;;33.13
70123;BMP280;57489;37.404;24.920;2022-08-21T09:12:09;99219.44;;;33.13
70123;BMP280;57489;37.404;24.920;2022-08-21T09:27:58;99218.53;;;33.29
70123;BMP280;57489;37.404;24.920;2022-08-21T09:32:59;99226.56;;;33.32
70123;BMP280;57489;37.404;24.920;2022-08-21T09:38:02;99222.34;;;33.31
70123;BMP280;57489;37.404;24.920;2022-08-21T09:43:06;99215.66;;;33.32
70123;BMP280;57489;37.404;24.920;2022-08-21T09:48:12;99217.59;;;33.45
70123;BMP280;57489;37.404;24.920;2022-08-21T09:53:27;99217.81;;;33.37
70123;BMP280;57489;37.404;24.920;2022-08-21T09:58:32;99220.38;;;33.32
70123;BMP280;57489;37.404;24.920;2022-08-21T10:03:33;99222.09;;;33.38
70123;BMP280;57489;37.404;24.920;2022-08-21T10:08:37;99216.97;;;33.41
70123;BMP280;57489;37.404;24.920;2022-08-21T10:19:16;99216.16;;;33.53
70123;BMP280;57489;37.404;24.920;2022-08-21T10:24:31;99209.50;;;33.54
70123;BMP280;57489;37.404;24.920;2022-08-21T10:35:17;99200.38;;;33.48
70123;BMP280;57489;37.404;24.920;2022-08-21T10:40:28;99199.91;;;33.62
70123;BMP280;57489;37.404;24.920;2022-08-21T10:45:44;99205.19;;;33.65
70123;BMP280;57489;37.404;24.920;2022-08-21T10:50:52;99196.19;;;33.56
70123;BMP280;57489;37.404;24.920;2022-08-21T10:56:02;99201.66;;;33.56
70123;BMP280;57489;37.404;24.920;2022-08-21T11:01:20;99197.72;;;33.57
70123;BMP280;57489;37.404;24.920;2022-08-21T11:06:25;99202.31;;;33.60
70123;BMP280;57489;37.404;24.920;2022-08-21T11:11:34;99200.75;;;33.59
70123;BMP280;57489;37.404;24.920;2022-08-21T11:16:46;99180.06;;;33.61
70123;BMP280;57489;37.404;24.920;2022-08-21T11:21:56;99191.75;;;33.71
70123;BMP280;57489;37.404;24.920;2022-08-21T11:27:07;99178.97;;;33.59
70123;BMP280;57489;37.404;24.920;2022-08-21T11:53:51;99158.88;;;33.87
70123;BMP280;57489;37.404;24.920;2022-08-21T11:59:02;99154.41;;;33.93
70123;BMP280;57489;37.404;24.920;2022-08-21T12:04:29;99156.38;;;34.02
70123;BMP280;57489;37.404;24.920;2022-08-21T12:09:35;99152.91;;;34.02
70123;BMP280;57489;37.404;24.920;2022-08-21T12:14:39;99151.69;;;34.03
70123;BMP280;57489;37.404;24.920;2022-08-21T12:19:40;99152.75;;;33.96
70123;BMP280;57489;37.404;24.920;2022-08-21T12:24:44;99150.88;;;33.84
70123;BMP280;57489;37.404;24.920;2022-08-21T12:29:49;99146.03;;;33.88
70123;BMP280;57489;37.404;24.920;2022-08-21T12:35:06;99148.56;;;33.82
70123;BMP280;57489;37.404;24.920;2022-08-21T12:40:23;99145.69;;;33.77
70123;BMP280;57489;37.404;24.920;2022-08-21T12:45:33;99143.88;;;33.83
70123;BMP280;57489;37.404;24.920;2022-08-21T12:50:57;99146.03;;;33.88
70123;BMP280;57489;37.404;24.920;2022-08-21T12:56:02;99148.41;;;33.77
70123;BMP280;57489;37.404;24.920;2022-08-21T13:01:27;99134.53;;;33.84
70123;BMP280;57489;37.404;24.920;2022-08-21T13:06:36;99130.88;;;33.78
70123;BMP280;57489;37.404;24.920;2022-08-21T13:11:37;99132.22;;;33.73
70123;BMP280;57489;37.404;24.920;2022-08-21T13:16:39;99125.84;;;33.67
70123;BMP280;57489;37.404;24.920;2022-08-21T13:21:42;99129.72;;;33.66
70123;BMP280;57489;37.404;24.920;2022-08-21T13:26:43;99133.22;;;33.66
70123;BMP280;57489;37.404;24.920;2022-08-21T13:31:53;99126.97;;;33.57
70123;BMP280;57489;37.404;24.920;2022-08-21T13:36:58;99125.44;;;33.56
70123;BMP280;57489;37.404;24.920;2022-08-21T13:42:01;99136.88;;;33.42
70123;BMP280;57489;37.404;24.920;2022-08-21T13:47:04;99133.56;;;33.47
70123;BMP280;57489;37.404;24.920;2022-08-21T13:52:17;99139.28;;;33.40
70123;BMP280;57489;37.404;24.920;2022-08-21T13:57:24;99134.91;;;33.42
70123;BMP280;57489;37.404;24.920;2022-08-21T14:02:25;99137.75;;;33.38
70123;BMP280;57489;37.404;24.920;2022-08-21T14:07:33;99121.69;;;33.31
70123;BMP280;57489;37.404;24.920;2022-08-21T14:12:55;99129.66;;;33.26
70123;BMP280;57489;37.404;24.920;2022-08-21T14:18:18;99131.06;;;33.30
70123;BMP280;57489;37.404;24.920;2022-08-21T14:23:26;99127.25;;;33.28
70123;BMP280;57489;37.404;24.920;2022-08-21T14:28:30;99126.47;;;33.27
70123;BMP280;57489;37.404;24.920;2022-08-21T14:33:32;99124.00;;;33.20
70123;BMP280;57489;37.404;24.920;2022-08-21T14:38:35;99131.88;;;33.18
70123;BMP280;57489;37.404;24.920;2022-08-21T14:43:36;99126.13;;;33.16
70123;BMP280;57489;37.404;24.920;2022-08-21T14:48:37;99131.88;;;33.18
70123;BMP280;57489;37.404;24.920;2022-08-21T14:53:39;99130.50;;;33.14
70123;BMP280;57489;37.404;24.920;2022-08-21T14:58:42;99131.81;;;33.09
70123;BMP280;57489;37.404;24.920;2022-08-21T15:03:42;99135.94;;;33.01
70123;BMP280;57489;37.404;24.920;2022-08-21T15:08:43;99135.84;;;33.04
70123;BMP280;57489;37.404;24.920;2022-08-21T15:13:44;99129.91;;;32.97
70123;BMP280;57489;37.404;24.920;2022-08-21T15:18:44;99135.66;;;32.99
70123;BMP280;57489;37.404;24.920;2022-08-21T15:23:45;99133.00;;;33.08
70123;BMP280;57489;37.404;24.920;2022-08-21T15:28:45;99121.50;;;33.04
70123;BMP280;57489;37.404;24.920;2022-08-21T15:33:46;99128.56;;;33.01
70123;BMP280;57489;37.404;24.920;2022-08-21T15:38:46;99124.22;;;33.04
70123;BMP280;57489;37.404;24.920;2022-08-21T15:43:51;99120.56;;;32.98
70123;BMP280;57489;37.404;24.920;2022-08-21T15:48:52;99126.09;;;32.94
70123;BMP280;57489;37.404;24.920;2022-08-21T15:53:53;99117.13;;;32.85
70123;BMP280;57489;37.404;24.920;2022-08-21T15:59:03;99113.19;;;32.86
70123;BMP280;57489;37.404;24.920;2022-08-21T16:04:05;99115.81;;;32.77
70123;BMP280;57489;37.404;24.920;2022-08-21T16:09:06;99119.84;;;32.72
70123;BMP280;57489;37.404;24.920;2022-08-21T16:14:07;99120.88;;;32.65
70123;BMP280;57489;37.404;24.920;2022-08-21T16:19:08;99106.28;;;32.59
70123;BMP280;57489;37.404;24.920;2022-08-21T16:24:09;99093.91;;;32.58
70123;BMP280;57489;37.404;24.920;2022-08-21T16:29:10;99098.72;;;32.54
70123;BMP280;57489;37.404;24.920;2022-08-21T16:34:17;99101.88;;;32.53
70123;BMP280;57489;37.404;24.920;2022-08-21T16:39:17;99112.84;;;32.49
70123;BMP280;57489;37.404;24.920;2022-08-21T16:44:20;99118.94;;;32.53
70123;BMP280;57489;37.404;24.920;2022-08-21T16:49:21;99118.94;;;32.53
70123;BMP280;57489;37.404;24.920;2022-08-21T16:54:22;99117.66;;;32.20
70123;BMP280;57489;37.404;24.920;2022-08-21T16:59:22;99121.34;;;32.26
70123;BMP280;57489;37.404;24.920;2022-08-21T17:04:23;99127.00;;;31.93
70123;BMP280;57489;37.404;24.920;2022-08-21T17:09:23;99121.66;;;31.90
70123;BMP280;57489;37.404;24.920;2022-08-21T17:14:24;99135.16;;;32.06
70123;BMP280;57489;37.404;24.920;2022-08-21T17:19:24;99133.63;;;32.05
70123;BMP280;57489;37.404;24.920;2022-08-21T17:24:25;99131.97;;;31.82
70123;BMP280;57489;37.404;24.920;2022-08-21T17:29:32;99136.97;;;31.71
70123;BMP280;57489;37.404;24.920;2022-08-21T17:34:33;99153.88;;;31.75
70123;BMP280;57489;37.404;24.920;2022-08-21T17:39:33;99162.38;;;31.77
70123;BMP280;57489;37.404;24.920;2022-08-21T17:44:37;99160.97;;;31.85
70123;BMP280;57489;37.404;24.920;2022-08-21T17:49:37;99172.13;;;31.87
70123;BMP280;57489;37.404;24.920;2022-08-21T17:54:38;99178.19;;;31.66
70123;BMP280;57489;37.404;24.920;2022-08-21T17:59:38;99182.34;;;31.83
70123;BMP280;57489;37.404;24.920;2022-08-21T18:04:39;99189.44;;;31.93
70123;BMP280;57489;37.404;24.920;2022-08-21T18:09:40;99189.06;;;31.78
70123;BMP280;57489;37.404;24.920;2022-08-21T18:14:40;99196.06;;;31.63
70123;BMP280;57489;37.404;24.920;2022-08-21T18:19:41;99204.63;;;31.62
70123;BMP280;57489;37.404;24.920;2022-08-21T18:24:41;99207.91;;;31.69
70123;BMP280;57489;37.404;24.920;2022-08-21T18:29:42;99203.25;;;31.70
70123;BMP280;57489;37.404;24.920;2022-08-21T18:34:43;99211.09;;;31.80
70123;BMP280;57489;37.404;24.920;2022-08-21T18:39:43;99219.53;;;31.41
70123;BMP280;57489;37.404;24.920;2022-08-21T18:44:46;99217.44;;;31.61
70123;BMP280;57489;37.404;24.920;2022-08-21T18:49:47;99221.16;;;31.80
70123;BMP280;57489;37.404;24.920;2022-08-21T18:54:47;99215.94;;;31.73
70123;BMP280;57489;37.404;24.920;2022-08-21T18:59:48;99209.91;;;31.81
70123;BMP280;57489;37.404;24.920;2022-08-21T19:04:48;99218.53;;;31.64
70123;BMP280;57489;37.404;24.920;2022-08-21T19:09:49;99216.22;;;31.49
70123;BMP280;57489;37.404;24.920;2022-08-21T19:14:49;99218.78;;;31.24
70123;BMP280;57489;37.404;24.920;2022-08-21T19:19:50;99216.91;;;31.37
70123;BMP280;57489;37.404;24.920;2022-08-21T19:24:51;99210.22;;;31.26
70123;BMP280;57489;37.404;24.920;2022-08-21T19:29:51;99212.88;;;31.13
70123;BMP280;57489;37.404;24.920;2022-08-21T19:34:52;99219.78;;;31.30
70123;BMP280;57489;37.404;24.920;2022-08-21T19:39:53;99223.94;;;31.64
70123;BMP280;57489;37.404;24.920;2022-08-21T19:44:53;99211.16;;;31.35
70123;BMP280;57489;37.404;24.920;2022-08-21T19:49:57;99197.78;;;31.57
70123;BMP280;57489;37.404;24.920;2022-08-21T19:54:58;99196.69;;;31.55
70123;BMP280;57489;37.404;24.920;2022-08-21T19:59:58;99193.97;;;31.55
70123;BMP280;57489;37.404;24.920;2022-08-21T20:04:59;99200.06;;;31.59
70123;BMP280;57489;37.404;24.920;2022-08-21T20:09:59;99203.00;;;31.19
70123;BMP280;57489;37.404;24.920;2022-08-21T20:15:00;99214.00;;;31.44
70123;BMP280;57489;37.404;24.920;2022-08-21T20:20:01;99207.34;;;31.16
70123;BMP280;57489;37.404;24.920;2022-08-21T20:25:02;99217.41;;;31.00
70123;BMP280;57489;37.404;24.920;2022-08-21T20:30:05;99219.63;;;31.21
70123;BMP280;57489;37.404;24.920;2022-08-21T20:35:07;99223.72;;;31.13
70123;BMP280;57489;37.404;24.920;2022-08-21T20:40:09;99238.06;;;31.42
70123;BMP280;57489;37.404;24.920;2022-08-21T20:45:17;99240.97;;;31.35
70123;BMP280;57489;37.404;24.920;2022-08-21T20:50:24;99242.66;;;31.29
70123;BMP280;57489;37.404;24.920;2022-08-21T20:55:27;99243.94;;;31.08
70123;BMP280;57489;37.404;24.920;2022-08-21T21:00:32;99248.13;;;31.13
70123;BMP280;57489;37.404;24.920;2022-08-21T21:05:45;99236.06;;;31.46
70123;BMP280;57489;37.404;24.920;2022-08-21T21:10:56;99248.25;;;31.22
70123;BMP280;57489;37.404;24.920;2022-08-21T21:16:09;99257.75;;;31.46
70123;BMP280;57489;37.404;24.920;2022-08-21T21:21:34;99250.78;;;31.45
70123;BMP280;57489;37.404;24.920;2022-08-21T21:26:43;99252.78;;;31.58
70123;BMP280;57489;37.404;24.920;2022-08-21T21:31:44;99257.50;;;31.41
70123;BMP280;57489;37.404;24.920;2022-08-21T21:36:55;99254.50;;;31.19
70123;BMP280;57489;37.404;24.920;2022-08-21T21:47:22;99248.75;;;31.17
70123;BMP280;57489;37.404;24.920;2022-08-21T22:03:31;99254.88;;;31.05
70123;BMP280;57489;37.404;24.920;2022-08-21T22:14:11;99245.16;;;30.91
70123;BMP280;57489;37.404;24.920;2022-08-21T22:19:19;99240.16;;;30.53
70123;BMP280;57489;37.404;24.920;2022-08-21T22:24:30;99233.59;;;30.87
70123;BMP280;57489;37.404;24.920;2022-08-21T22:29:45;99225.31;;;30.42
70123;BMP280;57489;37.404;24.920;2022-08-21T22:35:13;99221.59;;;30.36
70123;BMP280;57489;37.404;24.920;2022-08-21T22:40:28;99211.66;;;30.29
70123;BMP280;57489;37.404;24.920;2022-08-21T22:50:55;99224.78;;;30.30
70123;BMP280;57489;37.404;24.920;2022-08-21T22:56:00;99230.00;;;30.57
70123;BMP280;57489;37.404;24.920;2022-08-21T23:06:30;99228.22;;;30.51
70123;BMP280;57489;37.404;24.920;2022-08-21T23:11:40;99224.50;;;30.45
70123;BMP280;57489;37.404;24.920;2022-08-21T23:27:33;99218.78;;;30.39
70123;BMP280;57489;37.404;24.920;2022-08-21T23:38:06;99219.91;;;30.42
70123;BMP280;57489;37.404;24.920;2022-08-21T23:48:29;99218.56;;;30.14
70123;BMP280;57489;37.404;24.920;2022-08-21T23:58:57;99202.13;;;29.85
